Etusivu
METAR-TAF:

METAR-TAF

Lentoasemat :

Pincher Creek, Alberta, Kanada

Leveyspiiri: 49-31N, Pituuspiiri: 113-59W, korkeus merenpinnasta: 1190 m

Tämänhetkinen sää

Tämä raportti tehtiin 11 minuuttia sitten, kello 12.44 UTC
Tuuli 24 kn lännestä puuskistuen 30 kn:hen
Lämpötila 2°C
Kosteus 69%
Ilmanpaine 1015 hPa
Näkyvyys: 14.5 km
Pilvistä 15000 ft:n korkeudessa

METAR: CZPC 131244Z AUTO 26024G30KT 9SM OVC150 02/M03 A2996 RMK PRESFR SLP178

Aika: 05:55 (12:55 UTC)


TAF: puuttuu

Säähavainnot ja -ennusteet yli 4000 lentoasemalta (METAR- ja TAF-raportit).

Käytössä olevat sääasemat on merkitty karttaan keltaisilla ja punaisilla pisteillä.

Aseta hiiri pisteen päälle nähdäksesi sääaseman nimen.

Klikkaa sitten nähdäksesi säähavainnot ja -ennusteet.

Kartan vaihtaminen: klikkaa mustalla rastilla varustettuja vihreitä pisteitä, niin voit zoomata sisään; viivalla varustettua vihreää pistettä, niin voit zoomata ulos tai vihreitä nuolia, niin pääset viereisille kartoille.


METAR-TAF: